createdAt,value
2022-10-17T00:00:32.257Z,944.83
2022-10-17T00:01:00.420Z,944.83
2022-10-17T00:01:31.475Z,944.73
2022-10-17T00:02:02.578Z,944.73
2022-10-17T00:02:33.518Z,944.73
2022-10-17T00:03:04.208Z,944.73
2022-10-17T00:03:36.420Z,944.73
2022-10-17T00:04:06.515Z,944.73
2022-10-17T00:04:37.406Z,944.83
2022-10-17T00:05:08.221Z,944.73
2022-10-17T00:05:39.451Z,944.73
2022-10-17T00:06:10.467Z,944.83
2022-10-17T00:06:41.492Z,944.83
2022-10-17T00:07:12.555Z,944.94
2022-10-17T00:07:43.447Z,944.94
2022-10-17T00:08:14.481Z,944.83
2022-10-17T00:08:46.483Z,944.83
2022-10-17T00:09:16.570Z,944.94
2022-10-17T00:09:47.433Z,944.94
2022-10-17T00:10:18.555Z,944.83
2022-10-17T00:10:49.245Z,944.83
2022-10-17T00:11:20.807Z,944.73
2022-10-17T00:11:51.402Z,944.73
2022-10-17T00:12:22.431Z,944.83
2022-10-17T00:12:53.042Z,944.83
2022-10-17T00:13:24.660Z,945.04
2022-10-17T00:13:56.437Z,945.04
2022-10-17T00:14:26.413Z,944.94
2022-10-17T00:14:57.572Z,944.94
2022-10-17T00:15:31.327Z,944.94
2022-10-17T00:15:59.562Z,944.94
2022-10-17T00:16:31.471Z,944.83
2022-10-17T00:17:01.526Z,944.83
2022-10-17T00:17:32.387Z,944.63
2022-10-17T00:18:03.387Z,944.63
2022-10-17T00:18:34.216Z,945.04
2022-10-17T00:19:06.529Z,945.04
2022-10-17T00:19:36.474Z,944.94
2022-10-17T00:20:07.448Z,944.94
2022-10-17T00:20:38.194Z,944.94
2022-10-17T00:21:09.446Z,944.83
2022-10-17T00:21:40.427Z,944.83
2022-10-17T00:22:11.519Z,945.14
2022-10-17T00:22:42.479Z,945.14
2022-10-17T00:23:13.308Z,944.94
2022-10-17T00:23:44.662Z,944.94
2022-10-17T00:24:16.589Z,944.83
2022-10-17T00:24:46.558Z,944.83
2022-10-17T00:25:17.394Z,944.83
2022-10-17T00:25:48.471Z,944.83
2022-10-17T00:26:19.237Z,945.04
2022-10-17T00:26:50.559Z,945.04
2022-10-17T00:27:21.533Z,944.83
2022-10-17T00:27:52.412Z,944.83
2022-10-17T00:28:23.252Z,944.73
2022-10-17T00:28:54.704Z,944.73
2022-10-17T00:29:26.620Z,945.04
2022-10-17T00:29:56.304Z,945.04
2022-10-17T00:30:30.391Z,945.14
2022-10-17T00:30:58.507Z,945.14
2022-10-17T00:31:29.568Z,945.14
2022-10-17T00:32:00.545Z,945.14
2022-10-17T00:32:31.691Z,944.94
2022-10-17T00:33:02.400Z,944.94
2022-10-17T00:33:33.505Z,944.94
2022-10-17T00:34:04.354Z,944.94
2022-10-17T00:34:36.339Z,945.04
2022-10-17T00:35:06.564Z,945.04
2022-10-17T00:35:37.449Z,944.94
2022-10-17T00:36:08.192Z,944.83
2022-10-17T00:36:39.293Z,944.83
2022-10-17T00:37:10.584Z,944.83
2022-10-17T00:37:41.396Z,944.83
2022-10-17T00:38:12.534Z,944.94
2022-10-17T00:38:43.543Z,944.94
2022-10-17T00:39:14.555Z,945.14
2022-10-17T00:39:46.479Z,945.14
2022-10-17T00:40:16.806Z,944.83
2022-10-17T00:40:42.673Z,944.83
2022-10-17T00:41:13.301Z,945.04
2022-10-17T00:41:44.367Z,945.04
2022-10-17T00:42:15.199Z,944.94
2022-10-17T00:42:46.268Z,944.94
2022-10-17T00:43:17.624Z,944.83
2022-10-17T00:43:57.191Z,944.83
2022-10-17T00:44:24.551Z,945.04
2022-10-17T00:44:56.382Z,945.04
2022-10-17T00:45:32.100Z,945.04
2022-10-17T00:45:57.616Z,945.04
2022-10-17T00:46:28.571Z,944.94
2022-10-17T00:46:59.514Z,944.94
2022-10-17T00:47:30.456Z,944.94
2022-10-17T00:48:01.368Z,944.94
2022-10-17T00:48:32.500Z,945.04
2022-10-17T00:49:03.354Z,945.04
2022-10-17T00:49:34.495Z,945.14
2022-10-17T00:50:06.665Z,945.14
2022-10-17T00:50:36.344Z,945.04
2022-10-17T00:51:07.592Z,945.04
2022-10-17T00:51:38.433Z,945.04
2022-10-17T00:52:09.611Z,945.04
2022-10-17T00:52:40.473Z,945.04
2022-10-17T00:53:11.522Z,944.94
2022-10-17T00:53:42.247Z,944.94
2022-10-17T00:54:13.253Z,944.94
2022-10-17T00:54:44.391Z,944.94
2022-10-17T00:55:16.351Z,945.14
2022-10-17T00:55:46.442Z,945.14
2022-10-17T00:56:17.453Z,945.14
2022-10-17T00:56:48.487Z,945.14
2022-10-17T00:57:19.476Z,944.94
2022-10-17T00:57:50.483Z,944.94
2022-10-17T00:58:21.438Z,945.04
2022-10-17T00:58:52.481Z,945.04
2022-10-17T00:59:23.536Z,944.83
2022-10-17T00:59:54.589Z,944.83
2022-10-17T01:00:29.473Z,944.94
2022-10-17T01:00:56.376Z,944.94
2022-10-17T01:01:27.682Z,944.94
2022-10-17T01:01:58.356Z,944.94
2022-10-17T01:02:29.754Z,944.94
2022-10-17T01:03:00.454Z,944.94
2022-10-17T01:03:31.428Z,944.94
2022-10-17T01:04:02.482Z,944.94
2022-10-17T01:04:33.392Z,944.83
2022-10-17T01:05:04.492Z,944.83
2022-10-17T01:05:36.443Z,945.04
2022-10-17T01:06:06.407Z,945.04
2022-10-17T01:06:37.595Z,945.04
2022-10-17T01:07:08.522Z,945.04
2022-10-17T01:07:39.596Z,945.04
2022-10-17T01:08:10.347Z,945.04
2022-10-17T01:08:41.435Z,945.04
2022-10-17T01:09:12.586Z,944.94
2022-10-17T01:09:43.425Z,944.94
2022-10-17T01:10:14.553Z,944.94
2022-10-17T01:10:46.350Z,944.94
2022-10-17T01:11:16.359Z,944.94
2022-10-17T01:11:47.402Z,944.94
2022-10-17T01:12:18.271Z,945.04
2022-10-17T01:12:49.659Z,945.04
2022-10-17T01:13:20.551Z,944.83
2022-10-17T01:13:51.391Z,944.83
2022-10-17T01:14:22.431Z,945.14
2022-10-17T01:14:53.499Z,945.14
2022-10-17T01:15:27.481Z,944.94
2022-10-17T01:15:56.524Z,944.94
2022-10-17T01:16:26.420Z,944.94
2022-10-17T01:16:57.356Z,944.94
2022-10-17T01:17:28.511Z,945.04
2022-10-17T01:17:59.411Z,945.04
2022-10-17T01:18:30.232Z,945.04
2022-10-17T01:19:01.370Z,945.04
2022-10-17T01:19:32.349Z,945.04
2022-10-17T01:20:03.351Z,945.04
2022-10-17T01:20:34.405Z,945.04
2022-10-17T01:21:06.329Z,945.04
2022-10-17T01:21:36.252Z,944.94
2022-10-17T01:22:07.491Z,945.04
2022-10-17T01:22:38.515Z,945.04
2022-10-17T01:23:09.322Z,945.04
2022-10-17T01:23:40.448Z,945.04
2022-10-17T01:24:11.470Z,944.94
2022-10-17T01:24:42.528Z,944.94
2022-10-17T01:25:13.483Z,945.14
2022-10-17T01:25:44.551Z,945.14
2022-10-17T01:26:16.394Z,945.14
2022-10-17T01:26:46.287Z,945.14
2022-10-17T01:27:17.364Z,944.94
2022-10-17T01:27:48.445Z,944.94
2022-10-17T01:28:19.603Z,944.94
2022-10-17T01:28:50.552Z,944.94
2022-10-17T01:29:21.357Z,944.94
2022-10-17T01:29:52.460Z,944.94
2022-10-17T01:30:26.374Z,944.94
2022-10-17T01:30:54.515Z,944.94
2022-10-17T01:31:26.561Z,944.94
2022-10-17T01:31:56.495Z,944.94
2022-10-17T01:32:27.552Z,944.94
2022-10-17T01:32:58.445Z,944.94
2022-10-17T01:33:29.524Z,945.04
2022-10-17T01:34:00.493Z,945.04
2022-10-17T01:34:31.219Z,944.83
2022-10-17T01:35:02.343Z,944.83
2022-10-17T01:35:33.328Z,945.04
2022-10-17T01:36:05.873Z,945.04
2022-10-17T01:36:36.376Z,945.14
2022-10-17T01:37:06.502Z,945.14
2022-10-17T01:37:37.487Z,944.83
2022-10-17T01:38:08.543Z,945.21
2022-10-17T01:38:39.713Z,945.21
2022-10-17T01:39:10.623Z,944.83
2022-10-17T01:39:43.952Z,944.83
2022-10-17T01:40:12.446Z,945.04
2022-10-17T01:40:43.398Z,945.04
2022-10-17T01:41:14.600Z,945.04
2022-10-17T01:41:46.184Z,945.04
2022-10-17T01:42:16.293Z,945.04
2022-10-17T01:42:47.509Z,945.04
2022-10-17T01:43:18.395Z,944.94
2022-10-17T01:43:49.268Z,944.94
2022-10-17T01:44:20.578Z,945.14
2022-10-17T01:44:51.492Z,945.14
2022-10-17T01:45:25.199Z,944.94
2022-10-17T01:45:53.252Z,944.94
2022-10-17T01:46:24.221Z,945.14
2022-10-17T01:47:26.873Z,944.94
2022-10-17T01:47:57.423Z,944.94
2022-10-17T01:48:28.486Z,945.04
2022-10-17T01:48:59.521Z,945.04
2022-10-17T01:49:30.382Z,945.04
2022-10-17T01:50:01.166Z,945.04
2022-10-17T01:50:32.451Z,945.14
2022-10-17T01:51:03.448Z,945.14
2022-10-17T01:51:34.664Z,945.04
2022-10-17T01:52:06.540Z,945.04
2022-10-17T01:52:36.464Z,945.04
2022-10-17T01:53:07.431Z,945.04
2022-10-17T01:53:38.613Z,945.04
2022-10-17T01:54:09.594Z,945.14
2022-10-17T01:54:40.751Z,945.14
2022-10-17T01:55:11.540Z,944.94
2022-10-17T01:55:42.351Z,944.94
2022-10-17T01:56:13.490Z,945.04
2022-10-17T01:56:44.593Z,945.04
2022-10-17T01:57:16.196Z,945.04
2022-10-17T01:57:46.208Z,945.04
2022-10-17T01:58:17.429Z,944.94
2022-10-17T01:58:48.414Z,944.94
2022-10-17T01:59:19.393Z,945.04
2022-10-17T01:59:50.349Z,945.04
2022-10-17T02:00:24.212Z,945.04
2022-10-17T02:00:52.400Z,945.04
2022-10-17T02:01:23.554Z,944.94
2022-10-17T02:01:54.624Z,944.94
2022-10-17T02:02:26.592Z,944.83
2022-10-17T02:02:56.432Z,944.83
2022-10-17T02:03:27.440Z,944.94
2022-10-17T02:03:58.483Z,944.94
2022-10-17T02:04:29.653Z,945.04
2022-10-17T02:05:31.273Z,944.83
2022-10-17T02:06:02.531Z,944.83
2022-10-17T02:06:33.487Z,945.21
2022-10-17T02:07:04.317Z,945.21
2022-10-17T02:07:36.520Z,944.94
2022-10-17T02:08:06.585Z,944.94
2022-10-17T02:08:37.463Z,944.83
2022-10-17T02:09:08.583Z,945.14
2022-10-17T02:09:39.379Z,945.14
2022-10-17T02:10:10.580Z,944.63
2022-10-17T02:10:41.405Z,944.63
2022-10-17T02:11:12.520Z,944.94
2022-10-17T02:11:43.212Z,944.94
2022-10-17T02:12:14.488Z,944.73
2022-10-17T02:12:46.281Z,944.73
2022-10-17T02:13:16.330Z,944.83
2022-10-17T02:13:47.679Z,944.83
2022-10-17T02:14:18.520Z,944.83
2022-10-17T02:14:49.487Z,944.83
2022-10-17T02:15:23.210Z,944.94
2022-10-17T02:15:51.556Z,944.94
2022-10-17T02:16:22.400Z,944.94
2022-10-17T02:16:53.237Z,944.94
2022-10-17T02:17:24.363Z,944.94
2022-10-17T02:17:56.559Z,944.94
2022-10-17T02:18:26.524Z,944.83
2022-10-17T02:18:57.468Z,944.83
2022-10-17T02:19:28.323Z,944.94
2022-10-17T02:19:59.752Z,944.94
2022-10-17T02:20:30.576Z,945.04
2022-10-17T02:21:01.314Z,945.04
2022-10-17T02:21:32.437Z,945.04
2022-10-17T02:22:03.443Z,945.04
2022-10-17T02:22:34.495Z,944.94
2022-10-17T02:23:06.663Z,944.94
2022-10-17T02:23:36.632Z,945.21
2022-10-17T02:24:07.464Z,945.04
2022-10-17T02:24:38.618Z,945.04
2022-10-17T02:25:09.715Z,945.14
2022-10-17T02:25:40.473Z,945.14
2022-10-17T02:26:11.551Z,945.14
2022-10-17T02:26:42.574Z,945.14
2022-10-17T02:27:13.414Z,944.83
2022-10-17T02:27:44.274Z,944.83
2022-10-17T02:28:16.342Z,944.94
2022-10-17T02:28:46.378Z,944.94
2022-10-17T02:29:17.483Z,944.94
2022-10-17T02:29:48.743Z,944.94
2022-10-17T02:30:22.338Z,944.94
2022-10-17T02:30:50.448Z,944.94
2022-10-17T02:31:21.468Z,945.04
2022-10-17T02:31:52.547Z,945.04
2022-10-17T02:32:23.587Z,944.83
2022-10-17T02:32:54.361Z,944.83
2022-10-17T02:33:26.301Z,945.04
2022-10-17T02:33:56.603Z,945.04
2022-10-17T02:34:27.642Z,945.04
2022-10-17T02:34:58.461Z,945.04
2022-10-17T02:35:29.462Z,944.83
2022-10-17T02:36:00.498Z,944.83
2022-10-17T02:36:31.413Z,945.14
2022-10-17T02:37:02.232Z,945.14
2022-10-17T02:37:33.462Z,945.04
2022-10-17T02:38:04.267Z,945.04
2022-10-17T02:38:36.517Z,944.94
2022-10-17T02:39:06.304Z,944.94
2022-10-17T02:39:37.320Z,944.94
2022-10-17T02:40:08.403Z,944.94
2022-10-17T02:40:39.325Z,944.94
2022-10-17T02:41:10.660Z,944.94
2022-10-17T02:41:41.465Z,944.94
2022-10-17T02:42:12.839Z,945.04
2022-10-17T02:42:43.282Z,945.04
2022-10-17T02:43:14.356Z,945.14
2022-10-17T02:43:46.598Z,945.14
2022-10-17T02:44:16.319Z,944.83
2022-10-17T02:44:47.437Z,944.83
2022-10-17T02:45:21.261Z,945.04
2022-10-17T02:45:49.462Z,945.04
2022-10-17T02:46:20.433Z,944.94
2022-10-17T02:46:51.414Z,944.94
2022-10-17T02:47:22.391Z,945.21
2022-10-17T02:47:53.563Z,945.21
2022-10-17T02:48:24.293Z,944.94
2022-10-17T02:48:56.563Z,944.94
2022-10-17T02:49:26.478Z,944.73
2022-10-17T02:49:57.664Z,944.73
2022-10-17T02:50:59.366Z,945.04
2022-10-17T02:51:30.706Z,944.94
2022-10-17T02:52:01.548Z,944.94
2022-10-17T02:52:32.825Z,944.94
2022-10-17T02:53:03.391Z,944.94
2022-10-17T02:53:34.425Z,944.94
2022-10-17T02:54:06.528Z,944.94
2022-10-17T02:54:36.668Z,945.04
2022-10-17T02:55:07.575Z,944.83
2022-10-17T02:55:38.494Z,944.83
2022-10-17T02:56:09.514Z,945.04
2022-10-17T02:56:40.426Z,945.04
2022-10-17T02:57:11.396Z,944.83
2022-10-17T02:57:42.493Z,944.83
2022-10-17T02:58:13.424Z,944.94
2022-10-17T02:58:44.434Z,944.94
2022-10-17T02:59:16.358Z,945.04
2022-10-17T02:59:46.521Z,945.04
2022-10-17T03:00:20.202Z,944.83
2022-10-17T03:00:48.447Z,944.83
2022-10-17T03:01:19.392Z,944.83
2022-10-17T03:01:50.510Z,944.83
2022-10-17T03:02:21.666Z,944.73
2022-10-17T03:02:52.288Z,944.73
2022-10-17T03:03:23.416Z,944.94
2022-10-17T03:03:54.483Z,944.94
2022-10-17T03:04:26.622Z,944.94
2022-10-17T03:04:56.386Z,944.94
2022-10-17T03:05:27.333Z,945.04
2022-10-17T03:05:58.304Z,945.04
2022-10-17T03:06:29.458Z,944.83
2022-10-17T03:07:00.415Z,944.83
2022-10-17T03:07:31.356Z,945.04
2022-10-17T03:08:02.458Z,945.04
2022-10-17T03:08:33.608Z,945.04
2022-10-17T03:11:39.402Z,944.94
2022-10-17T03:12:10.468Z,944.94
2022-10-17T03:12:41.554Z,944.94
2022-10-17T03:13:12.519Z,944.94
2022-10-17T03:13:43.562Z,944.94
2022-10-17T03:14:14.559Z,944.94
2022-10-17T03:14:46.274Z,944.94
2022-10-17T03:15:19.195Z,945.14
2022-10-17T03:15:47.595Z,945.14
2022-10-17T03:16:18.443Z,945.04
2022-10-17T03:16:49.596Z,945.04
2022-10-17T03:17:20.622Z,945.04
2022-10-17T03:17:51.722Z,945.04
2022-10-17T03:18:22.347Z,945.04
2022-10-17T03:18:53.450Z,945.04
2022-10-17T03:19:24.358Z,945.21
2022-10-17T03:19:56.639Z,945.21
2022-10-17T03:20:26.521Z,944.83
2022-10-17T03:20:57.425Z,944.83
2022-10-17T03:21:28.407Z,945.21
2022-10-17T03:21:59.435Z,945.21
2022-10-17T03:22:30.630Z,945.04
2022-10-17T03:23:01.305Z,945.04
2022-10-17T03:23:32.499Z,944.94
2022-10-17T03:24:03.503Z,944.94
2022-10-17T03:24:34.373Z,945.04
2022-10-17T03:25:06.699Z,945.04
2022-10-17T03:25:36.648Z,944.94
2022-10-17T03:26:07.452Z,945.04
2022-10-17T03:26:38.411Z,945.04
2022-10-17T03:27:09.315Z,945.04
2022-10-17T03:27:40.578Z,945.04
2022-10-17T03:28:11.509Z,945.21
2022-10-17T03:28:42.402Z,945.21
2022-10-17T03:29:13.496Z,944.94
2022-10-17T03:29:44.566Z,944.94
2022-10-17T03:30:19.024Z,945.14
2022-10-17T03:30:46.434Z,945.14
2022-10-17T03:31:17.498Z,945.21
2022-10-17T03:31:48.543Z,945.21
2022-10-17T03:32:19.416Z,945.14
2022-10-17T03:32:50.339Z,945.14
2022-10-17T03:33:21.367Z,945.14
2022-10-17T03:33:52.546Z,945.14
2022-10-17T03:34:23.592Z,945.04
2022-10-17T03:34:54.291Z,945.04
2022-10-17T03:35:26.609Z,945.14
2022-10-17T03:35:56.469Z,945.14
2022-10-17T03:36:27.487Z,945.04
2022-10-17T03:36:58.339Z,945.04
2022-10-17T03:37:29.871Z,945.04
2022-10-17T03:38:00.419Z,945.04
2022-10-17T03:38:31.549Z,945.14
2022-10-17T03:39:02.287Z,945.14
2022-10-17T03:39:33.499Z,945.14
2022-10-17T03:40:04.504Z,945.14
2022-10-17T03:40:36.604Z,945.21
2022-10-17T03:41:06.611Z,945.21
2022-10-17T03:41:37.422Z,945.14
2022-10-17T03:42:08.593Z,945.14
2022-10-17T03:42:39.478Z,945.14
2022-10-17T03:43:10.739Z,945.04
2022-10-17T03:43:41.404Z,945.04
2022-10-17T03:44:12.599Z,945.14
2022-10-17T03:44:43.408Z,945.14
2022-10-17T03:45:17.430Z,945.31
2022-10-17T03:45:46.555Z,945.31
2022-10-17T03:46:47.325Z,945.04
2022-10-17T03:47:18.580Z,945.21
2022-10-17T03:47:49.543Z,945.21
2022-10-17T03:48:20.363Z,945.21
2022-10-17T03:48:51.568Z,945.21
2022-10-17T03:49:22.491Z,945.04
2022-10-17T03:49:53.514Z,945.04
2022-10-17T03:50:24.556Z,945.04
2022-10-17T03:50:56.393Z,945.04
2022-10-17T03:51:26.305Z,945.21
2022-10-17T03:51:57.419Z,945.21
2022-10-17T03:52:28.514Z,945.21
2022-10-17T03:52:59.251Z,945.21
2022-10-17T03:53:30.516Z,945.21
2022-10-17T03:54:01.330Z,945.21
2022-10-17T03:54:32.358Z,945.14
2022-10-17T03:55:03.663Z,945.14
2022-10-17T03:55:34.449Z,945.14
2022-10-17T03:56:06.508Z,945.14
2022-10-17T03:56:36.586Z,945.31
2022-10-17T03:57:07.648Z,945.31
2022-10-17T03:57:41.070Z,945.31
2022-10-17T03:58:09.388Z,945.31
2022-10-17T03:58:40.439Z,945.31
2022-10-17T03:59:11.550Z,945.14
2022-10-17T03:59:42.443Z,945.14
2022-10-17T04:00:16.183Z,945.21
2022-10-17T04:00:44.658Z,945.21
2022-10-17T04:01:16.401Z,945.04
2022-10-17T04:01:46.516Z,945.04
2022-10-17T04:02:17.320Z,945.14
2022-10-17T04:02:48.439Z,945.14
2022-10-17T04:03:19.377Z,945.41
2022-10-17T04:03:50.641Z,945.41
2022-10-17T04:04:21.506Z,945.21
2022-10-17T04:04:52.496Z,945.21
2022-10-17T04:05:23.535Z,945.14
2022-10-17T04:05:54.431Z,945.14
2022-10-17T04:06:26.710Z,945.31
2022-10-17T04:06:56.712Z,945.31
2022-10-17T04:07:27.841Z,945.51
2022-10-17T04:08:01.012Z,945.51
2022-10-17T04:08:29.736Z,945.51
2022-10-17T04:09:00.547Z,945.51
2022-10-17T04:09:31.360Z,945.21
2022-10-17T04:10:02.308Z,945.21
2022-10-17T04:10:33.601Z,945.41
2022-10-17T04:11:04.470Z,945.41
2022-10-17T04:11:36.464Z,945.51
2022-10-17T04:12:06.466Z,945.51
2022-10-17T04:12:37.541Z,945.41
2022-10-17T04:13:08.446Z,945.41
2022-10-17T04:13:39.648Z,945.41
2022-10-17T04:14:10.369Z,945.41
2022-10-17T04:14:41.539Z,945.41
2022-10-17T04:15:15.438Z,945.51
2022-10-17T04:15:43.482Z,945.51
2022-10-17T04:16:14.271Z,945.21
2022-10-17T04:16:46.411Z,945.21
2022-10-17T04:17:16.338Z,945.41
2022-10-17T04:17:48.632Z,945.41
2022-10-17T04:18:18.519Z,945.31
2022-10-17T04:18:49.382Z,945.31
2022-10-17T04:19:20.503Z,945.41
2022-10-17T04:19:51.566Z,945.41
2022-10-17T04:20:22.727Z,945.41
2022-10-17T04:20:53.527Z,945.41
2022-10-17T04:21:24.454Z,945.71
2022-10-17T04:21:56.521Z,945.71
2022-10-17T04:22:26.933Z,945.31
2022-10-17T04:22:57.607Z,945.31
2022-10-17T04:23:28.502Z,945.41
2022-10-17T04:23:59.550Z,945.41
2022-10-17T04:24:30.550Z,945.31
2022-10-17T04:25:33.425Z,945.31
2022-10-17T04:26:05.530Z,945.31
2022-10-17T04:26:35.536Z,945.41
2022-10-17T04:27:06.907Z,945.41
2022-10-17T04:27:36.843Z,945.41
2022-10-17T04:28:07.746Z,945.51
2022-10-17T04:29:09.524Z,945.51
2022-10-17T04:29:40.468Z,945.51
2022-10-17T04:30:14.844Z,945.41
2022-10-17T04:30:45.141Z,945.41
2022-10-17T04:31:13.645Z,945.51
2022-10-17T04:31:44.635Z,945.51
2022-10-17T04:32:16.893Z,945.31
2022-10-17T04:32:46.860Z,945.31
2022-10-17T04:33:17.667Z,945.31
2022-10-17T04:33:48.471Z,945.31
2022-10-17T04:34:19.849Z,945.31
2022-10-17T04:34:50.749Z,945.31
2022-10-17T04:35:21.558Z,945.51
2022-10-17T04:35:52.323Z,945.51
2022-10-17T04:36:23.585Z,945.31
2022-10-17T04:36:54.288Z,945.31
2022-10-17T04:37:26.644Z,945.61
2022-10-17T04:37:56.455Z,945.61
2022-10-17T04:38:28.614Z,945.51
2022-10-17T04:38:58.467Z,945.51
2022-10-17T04:39:29.724Z,945.71
2022-10-17T04:40:00.331Z,945.71
2022-10-17T04:40:31.696Z,945.51
2022-10-17T04:41:02.705Z,945.51
2022-10-17T04:41:33.523Z,945.51
2022-10-17T04:42:04.635Z,945.51
2022-10-17T04:42:36.581Z,945.41
2022-10-17T04:43:06.576Z,945.41
2022-10-17T04:43:37.564Z,945.71
2022-10-17T04:44:08.315Z,945.41
2022-10-17T04:44:39.615Z,945.41
2022-10-17T04:45:13.354Z,945.61
2022-10-17T04:45:41.560Z,945.61
2022-10-17T04:46:12.725Z,945.51
2022-10-17T04:46:43.508Z,945.51
2022-10-17T04:47:14.485Z,945.61
2022-10-17T04:47:46.865Z,945.61
2022-10-17T04:48:16.843Z,945.41
2022-10-17T04:48:47.563Z,945.41
2022-10-17T04:49:18.511Z,945.61
2022-10-17T04:49:49.725Z,945.61
2022-10-17T04:50:20.834Z,945.61
2022-10-17T04:50:51.645Z,945.61
2022-10-17T04:51:24.614Z,945.71
2022-10-17T04:51:53.678Z,945.71
2022-10-17T04:52:24.644Z,945.71
2022-10-17T04:52:56.422Z,945.71
2022-10-17T04:53:26.521Z,945.71
2022-10-17T04:53:57.668Z,945.71
2022-10-17T04:54:28.509Z,945.61
2022-10-17T04:54:59.546Z,945.61
2022-10-17T04:55:30.557Z,945.82
2022-10-17T04:56:01.680Z,945.82
2022-10-17T04:56:32.668Z,945.51
2022-10-17T04:57:03.615Z,945.51
2022-10-17T04:57:34.593Z,945.71
2022-10-17T04:58:06.601Z,945.71
2022-10-17T04:58:36.592Z,945.51
2022-10-17T04:59:07.473Z,945.51
2022-10-17T04:59:38.311Z,945.51
2022-10-17T05:00:12.405Z,945.31
2022-10-17T05:00:40.730Z,945.31
2022-10-17T05:01:11.503Z,945.41
2022-10-17T05:01:42.540Z,945.41
2022-10-17T05:02:13.664Z,945.41
2022-10-17T05:02:44.583Z,945.41
2022-10-17T05:03:16.716Z,945.51
2022-10-17T05:03:46.641Z,945.51
2022-10-17T05:04:21.062Z,945.41
2022-10-17T05:04:48.544Z,945.41
2022-10-17T05:05:19.682Z,945.31
2022-10-17T05:05:50.715Z,945.31
2022-10-17T05:06:21.503Z,945.51
2022-10-17T05:06:52.433Z,945.51
2022-10-17T05:07:23.645Z,945.51
2022-10-17T05:07:54.721Z,945.51
2022-10-17T05:08:26.411Z,945.51
2022-10-17T05:08:56.466Z,945.51
2022-10-17T05:09:27.698Z,945.31
2022-10-17T05:09:58.541Z,945.31
2022-10-17T05:10:29.502Z,945.61
2022-10-17T05:11:00.679Z,945.61
2022-10-17T05:11:31.608Z,945.61
2022-10-17T05:12:04.349Z,945.61
2022-10-17T05:12:33.697Z,945.51
2022-10-17T05:13:04.612Z,945.51
2022-10-17T05:13:36.937Z,945.51
2022-10-17T05:14:06.533Z,945.51
2022-10-17T05:14:37.316Z,945.61
2022-10-17T05:15:11.242Z,945.41
2022-10-17T05:15:39.509Z,945.41
2022-10-17T05:16:10.574Z,945.51
2022-10-17T05:16:41.537Z,945.51
2022-10-17T05:17:12.387Z,945.41
2022-10-17T05:17:43.419Z,945.41
2022-10-17T05:18:14.390Z,945.51
2022-10-17T05:18:49.456Z,945.51
2022-10-17T05:19:16.660Z,945.51
2022-10-17T05:19:47.557Z,945.51
2022-10-17T05:20:18.400Z,945.61
2022-10-17T05:20:49.722Z,945.61
2022-10-17T05:21:20.725Z,945.61
2022-10-17T05:21:51.515Z,945.61
2022-10-17T05:22:22.302Z,945.51
2022-10-17T05:22:53.546Z,945.51
2022-10-17T05:23:24.585Z,945.71
2022-10-17T05:23:56.583Z,945.71
2022-10-17T05:24:26.330Z,945.61
2022-10-17T05:24:57.553Z,945.61
2022-10-17T05:25:28.453Z,945.61
2022-10-17T05:25:59.538Z,945.61
2022-10-17T05:26:30.549Z,945.71
2022-10-17T05:27:01.670Z,945.71
2022-10-17T05:27:32.637Z,945.71
2022-10-17T05:28:03.513Z,945.71
2022-10-17T05:28:34.761Z,945.41
2022-10-17T05:29:06.558Z,945.41
2022-10-17T05:29:36.443Z,945.71
2022-10-17T05:30:10.375Z,945.82
2022-10-17T05:30:38.386Z,945.82
2022-10-17T05:31:09.585Z,945.71
2022-10-17T05:31:40.536Z,945.71
2022-10-17T05:32:11.764Z,945.51
2022-10-17T05:32:45.170Z,945.51
2022-10-17T05:33:13.426Z,945.61
2022-10-17T05:33:44.499Z,945.61
2022-10-17T05:34:16.513Z,945.51
2022-10-17T05:34:46.717Z,945.51
2022-10-17T05:35:19.375Z,945.41
2022-10-17T05:35:48.480Z,945.41
2022-10-17T05:36:19.325Z,945.82
2022-10-17T05:36:50.485Z,945.82
2022-10-17T05:37:23.223Z,945.71
2022-10-17T05:37:52.410Z,945.71
2022-10-17T05:38:23.413Z,945.61
2022-10-17T05:38:54.449Z,945.61
2022-10-17T05:39:26.644Z,945.82
2022-10-17T05:39:56.385Z,945.82
2022-10-17T05:40:27.542Z,945.51
2022-10-17T05:40:58.513Z,945.51
2022-10-17T05:41:29.508Z,945.71
2022-10-17T05:42:00.395Z,945.71
2022-10-17T05:42:31.972Z,945.92
2022-10-17T05:43:02.725Z,945.92
2022-10-17T05:43:34.627Z,945.61
2022-10-17T05:44:05.657Z,945.61
2022-10-17T05:44:36.878Z,945.61
2022-10-17T05:45:09.671Z,945.61
2022-10-17T05:45:37.687Z,945.71
2022-10-17T05:46:08.710Z,945.71
2022-10-17T05:46:39.769Z,945.71
2022-10-17T05:47:10.991Z,945.92
2022-10-17T05:47:41.799Z,945.92
2022-10-17T05:48:12.833Z,945.82
2022-10-17T05:48:43.651Z,945.82
2022-10-17T05:49:19.618Z,945.92
2022-10-17T05:49:51.495Z,945.92
2022-10-17T05:50:16.982Z,945.92
2022-10-17T05:50:47.994Z,945.92
2022-10-17T05:51:18.821Z,945.82
2022-10-17T05:51:49.726Z,945.82
2022-10-17T05:52:20.765Z,946.02
2022-10-17T05:52:51.942Z,946.02
2022-10-17T05:53:22.659Z,946.02
2022-10-17T05:53:53.571Z,946.02
2022-10-17T05:54:24.630Z,945.92
2022-10-17T05:54:56.965Z,945.92
2022-10-17T05:55:26.634Z,946.02
2022-10-17T05:55:57.725Z,946.02
2022-10-17T05:56:28.762Z,946.02
2022-10-17T05:56:59.713Z,946.02
2022-10-17T05:57:30.676Z,945.71
2022-10-17T05:58:01.999Z,945.71
2022-10-17T05:58:49.138Z,945.92
2022-10-17T05:59:03.997Z,945.92
2022-10-17T05:59:34.730Z,946.02
2022-10-17T06:00:09.842Z,946.02
2022-10-17T06:00:36.973Z,945.92
2022-10-17T06:01:10.669Z,946.02
2022-10-17T06:01:38.565Z,946.02
2022-10-17T06:02:09.673Z,946.02
2022-10-17T06:02:40.799Z,946.02
2022-10-17T06:03:11.882Z,945.82
2022-10-17T06:03:42.755Z,945.82
2022-10-17T06:04:13.769Z,946.02
2022-10-17T06:04:44.714Z,946.02
2022-10-17T06:05:17.060Z,946.02
2022-10-17T06:05:46.893Z,946.02
2022-10-17T06:06:17.882Z,945.92
2022-10-17T06:06:48.918Z,945.92
2022-10-17T06:07:19.776Z,945.92
2022-10-17T06:07:50.792Z,945.92
2022-10-17T06:08:21.599Z,946.02
2022-10-17T06:08:52.766Z,946.02
2022-10-17T06:09:23.845Z,946.12
2022-10-17T06:09:54.853Z,946.12
2022-10-17T06:10:26.812Z,945.92
2022-10-17T06:10:56.653Z,945.92
2022-10-17T06:11:27.758Z,946.12
2022-10-17T06:11:58.721Z,946.12
2022-10-17T06:12:30.133Z,946.12
2022-10-17T06:13:00.656Z,946.12
2022-10-17T06:13:32.574Z,946.02
2022-10-17T06:14:02.796Z,946.02
2022-10-17T06:14:33.833Z,946.12
2022-10-17T06:15:07.534Z,946.12
2022-10-17T06:15:36.730Z,946.22
2022-10-17T06:16:06.488Z,946.22
2022-10-17T06:16:37.529Z,946.12
2022-10-17T06:17:12.209Z,946.12
2022-10-17T06:17:39.789Z,946.12
2022-10-17T06:18:10.781Z,946.22
2022-10-17T06:18:41.877Z,946.22
2022-10-17T06:19:12.825Z,946.32
2022-10-17T06:19:43.810Z,946.32
2022-10-17T06:20:14.678Z,946.12
2022-10-17T06:20:46.866Z,946.12
2022-10-17T06:21:16.879Z,946.32
2022-10-17T06:21:47.682Z,946.32
2022-10-17T06:22:18.516Z,946.22
2022-10-17T06:22:49.538Z,946.22
2022-10-17T06:23:20.871Z,946.02
2022-10-17T06:23:51.607Z,946.02
2022-10-17T06:24:22.582Z,946.12
2022-10-17T06:24:53.738Z,946.12
2022-10-17T06:25:24.906Z,946.22
2022-10-17T06:25:56.844Z,946.22
2022-10-17T06:26:26.665Z,946.02
2022-10-17T06:26:57.806Z,946.02
2022-10-17T06:27:28.696Z,946.22
2022-10-17T06:27:59.662Z,946.22
2022-10-17T06:28:30.713Z,946.12
2022-10-17T06:29:02.064Z,946.12
2022-10-17T06:29:32.888Z,946.43
2022-10-17T06:30:06.617Z,946.43
2022-10-17T06:30:34.939Z,946.02
2022-10-17T06:31:06.652Z,946.02
2022-10-17T06:31:36.900Z,946.22
2022-10-17T06:32:09.929Z,946.12
2022-10-17T06:32:38.687Z,946.12